DLH2A EDDL-EDDF
Flight info
| Callsign | DLH2A |
|---|---|
| Flight time | 0h 31m |
| Altitude | 23000 |
| Route | COL6T COL T911 ROLIS ROLIS5A |
| Aircraft | A320/M-SDE3FGHIRWY/LB1 |
Departure
| Time | 2026-05-04 19:51 |
|---|---|
| Airport | Düsseldorf Airport (EDDL) |
Arrival
| Time | 2026-05-04 20:22 |
|---|---|
| Airport | Frankfurt Main Airport (EDDF) |
| Time | Latitude | Longitude | Altitude | Speed | Heading |
|---|---|---|---|---|---|
| 2026-05-04 19:00 | 51.27656 | 6.76162 | 126 ft | 0 kts | 79° |
| 2026-05-04 19:01 | 51.27655 | 6.76152 | 125 ft | 0 kts | 79° |
| 2026-05-04 19:26 | 51.27654 | 6.76150 | 129 ft | 2 kts | 79° |
| 2026-05-04 19:26 | 51.27649 | 6.76111 | 128 ft | 4 kts | 79° |
| 2026-05-04 19:26 | 51.27643 | 6.76071 | 128 ft | 4 kts | 58° |
| 2026-05-04 19:27 | 51.27626 | 6.76048 | 125 ft | 4 kts | 359° |
| 2026-05-04 19:27 | 51.27607 | 6.76056 | 128 ft | 4 kts | 333° |
| 2026-05-04 19:27 | 51.27595 | 6.76066 | 127 ft | 1 kts | 333° |
| 2026-05-04 19:29 | 51.27632 | 6.76042 | 126 ft | 11 kts | 345° |
| 2026-05-04 19:29 | 51.27730 | 6.76042 | 128 ft | 14 kts | 0° |
| 2026-05-04 19:29 | 51.27811 | 6.76044 | 128 ft | 7 kts | 3° |
| 2026-05-04 19:30 | 51.27851 | 6.76046 | 124 ft | 5 kts | 1° |
| 2026-05-04 19:30 | 51.27878 | 6.76047 | 127 ft | 3 kts | 1° |
| 2026-05-04 19:30 | 51.27900 | 6.76047 | 128 ft | 3 kts | 1° |
| 2026-05-04 19:30 | 51.27913 | 6.76048 | 128 ft | 1 kts | 1° |
| 2026-05-04 19:31 | 51.27918 | 6.76048 | 128 ft | 3 kts | 1° |
| 2026-05-04 19:31 | 51.27932 | 6.76048 | 128 ft | 0 kts | 1° |
| 2026-05-04 19:31 | 51.27963 | 6.76049 | 128 ft | 5 kts | 359° |
| 2026-05-04 19:32 | 51.27995 | 6.76047 | 126 ft | 4 kts | 359° |
| 2026-05-04 19:32 | 51.28040 | 6.76047 | 125 ft | 8 kts | 360° |
| 2026-05-04 19:32 | 51.28089 | 6.76036 | 127 ft | 5 kts | 336° |
| 2026-05-04 19:32 | 51.28108 | 6.76022 | 124 ft | 2 kts | 339° |
| 2026-05-04 19:33 | 51.28130 | 6.76022 | 129 ft | 3 kts | 28° |
| 2026-05-04 19:33 | 51.28135 | 6.76033 | 126 ft | 0 kts | 49° |
| 2026-05-04 19:34 | 51.28135 | 6.76034 | 126 ft | 0 kts | 53° |
| 2026-05-04 19:35 | 51.28149 | 6.76063 | 127 ft | 6 kts | 53° |
| 2026-05-04 19:35 | 51.28198 | 6.76165 | 128 ft | 19 kts | 52° |
| 2026-05-04 19:35 | 51.28297 | 6.76371 | 123 ft | 26 kts | 53° |
| 2026-05-04 19:36 | 51.28415 | 6.76620 | 123 ft | 30 kts | 53° |
| 2026-05-04 19:36 | 51.28542 | 6.76884 | 124 ft | 30 kts | 52° |
| 2026-05-04 19:36 | 51.28669 | 6.77154 | 127 ft | 31 kts | 52° |
| 2026-05-04 19:36 | 51.28799 | 6.77427 | 127 ft | 30 kts | 53° |
| 2026-05-04 19:37 | 51.28930 | 6.77702 | 124 ft | 31 kts | 53° |
| 2026-05-04 19:37 | 51.29061 | 6.77980 | 128 ft | 30 kts | 53° |
| 2026-05-04 19:37 | 51.29167 | 6.78199 | 136 ft | 12 kts | 50° |
| 2026-05-04 19:37 | 51.29204 | 6.78276 | 139 ft | 6 kts | 53° |
| 2026-05-04 19:38 | 51.29218 | 6.78307 | 140 ft | 1 kts | 53° |
| 2026-05-04 19:38 | 51.29219 | 6.78308 | 140 ft | 0 kts | 53° |
| 2026-05-04 19:38 | 51.29221 | 6.78313 | 140 ft | 4 kts | 53° |
| 2026-05-04 19:38 | 51.29241 | 6.78355 | 142 ft | 3 kts | 52° |
| 2026-05-04 19:39 | 51.29244 | 6.78361 | 143 ft | 0 kts | 52° |
| 2026-05-04 19:39 | 51.29249 | 6.78371 | 143 ft | 0 kts | 53° |
| 2026-05-04 19:40 | 51.29250 | 6.78375 | 143 ft | 1 kts | 53° |
| 2026-05-04 19:40 | 51.29261 | 6.78397 | 144 ft | 4 kts | 52° |
| 2026-05-04 19:40 | 51.29286 | 6.78448 | 146 ft | 7 kts | 50° |
| 2026-05-04 19:40 | 51.29293 | 6.78463 | 147 ft | 0 kts | 51° |
| 2026-05-04 19:41 | 51.29297 | 6.78472 | 147 ft | 3 kts | 54° |
| 2026-05-04 19:41 | 51.29309 | 6.78497 | 148 ft | 1 kts | 54° |
| 2026-05-04 19:41 | 51.29314 | 6.78509 | 149 ft | 1 kts | 52° |
| 2026-05-04 19:41 | 51.29330 | 6.78541 | 150 ft | 2 kts | 48° |
| 2026-05-04 19:42 | 51.29363 | 6.78571 | 152 ft | 6 kts | 21° |
| 2026-05-04 19:42 | 51.29367 | 6.78572 | 152 ft | 0 kts | 13° |
| 2026-05-04 19:42 | 51.29369 | 6.78572 | 152 ft | 1 kts | 9° |
| 2026-05-04 19:42 | 51.29371 | 6.78572 | 152 ft | 0 kts | 8° |
| 2026-05-04 19:43 | 51.29372 | 6.78572 | 152 ft | 0 kts | 8° |
| 2026-05-04 19:43 | 51.29375 | 6.78573 | 152 ft | 0 kts | 5° |
| 2026-05-04 19:45 | 51.29389 | 6.78574 | 152 ft | 7 kts | 2° |
| 2026-05-04 19:45 | 51.29439 | 6.78569 | 152 ft | 0 kts | 355° |
| 2026-05-04 19:48 | 51.29487 | 6.78564 | 152 ft | 16 kts | 356° |
| 2026-05-04 19:48 | 51.29558 | 6.78546 | 153 ft | 7 kts | 285° |
| 2026-05-04 19:49 | 51.29552 | 6.78533 | 152 ft | 1 kts | 224° |
| 2026-05-04 19:49 | 51.29544 | 6.78519 | 152 ft | 2 kts | 229° |
| 2026-05-04 19:49 | 51.29540 | 6.78511 | 152 ft | 0 kts | 230° |
| 2026-05-04 19:49 | 51.29539 | 6.78510 | 152 ft | 1 kts | 230° |
| 2026-05-04 19:50 | 51.29536 | 6.78504 | 151 ft | 0 kts | 230° |
| 2026-05-04 19:50 | 51.29534 | 6.78501 | 151 ft | 0 kts | 230° |
| 2026-05-04 19:50 | 51.29500 | 6.78429 | 149 ft | 33 kts | 233° |
| 2026-05-04 19:50 | 51.29200 | 6.77798 | 133 ft | 105 kts | 232° |
| 2026-05-04 19:51 | 51.28643 | 6.76633 | 132 ft | 157 kts | 232° |
| 2026-05-04 19:51 | 51.27994 | 6.75228 | 758 ft | 155 kts | 232° |
| 2026-05-04 19:51 | 51.27360 | 6.73829 | 1427 ft | 157 kts | 231° |
| 2026-05-04 19:51 | 51.26667 | 6.72336 | 1814 ft | 178 kts | 232° |
| 2026-05-04 19:52 | 51.25879 | 6.70651 | 2214 ft | 201 kts | 231° |
| 2026-05-04 19:52 | 51.25001 | 6.68784 | 2644 ft | 225 kts | 232° |
| 2026-05-04 19:52 | 51.24014 | 6.66685 | 3103 ft | 248 kts | 232° |
| 2026-05-04 19:52 | 51.22851 | 6.64598 | 3870 ft | 256 kts | 215° |
| 2026-05-04 19:53 | 51.21190 | 6.63593 | 4749 ft | 261 kts | 184° |
| 2026-05-04 19:53 | 51.19364 | 6.63754 | 5648 ft | 265 kts | 175° |
| 2026-05-04 19:53 | 51.17523 | 6.64052 | 6546 ft | 268 kts | 174° |
| 2026-05-04 19:53 | 51.15676 | 6.64597 | 7373 ft | 273 kts | 158° |
| 2026-05-04 19:54 | 51.14131 | 6.66291 | 8194 ft | 279 kts | 134° |
| 2026-05-04 19:54 | 51.13225 | 6.68952 | 9124 ft | 287 kts | 107° |
| 2026-05-04 19:54 | 51.13109 | 6.72150 | 9962 ft | 296 kts | 90° |
| 2026-05-04 19:54 | 51.13229 | 6.75535 | 10415 ft | 314 kts | 89° |
| 2026-05-04 19:55 | 51.13358 | 6.78790 | 10640 ft | 336 kts | 89° |
| 2026-05-04 19:55 | 51.13517 | 6.82626 | 10846 ft | 359 kts | 89° |
| 2026-05-04 19:55 | 51.13681 | 6.86666 | 11298 ft | 370 kts | 89° |
| 2026-05-04 19:55 | 51.13843 | 6.90786 | 11971 ft | 375 kts | 89° |
| 2026-05-04 19:56 | 51.14004 | 6.94938 | 12675 ft | 379 kts | 89° |
| 2026-05-04 19:56 | 51.14161 | 6.99156 | 13382 ft | 383 kts | 89° |
| 2026-05-04 19:56 | 51.14313 | 7.03368 | 14023 ft | 387 kts | 89° |
| 2026-05-04 19:56 | 51.14430 | 7.07663 | 14622 ft | 390 kts | 93° |
| 2026-05-04 19:57 | 51.14155 | 7.11969 | 15233 ft | 390 kts | 103° |
| 2026-05-04 19:57 | 51.13523 | 7.16143 | 15803 ft | 393 kts | 107° |
| 2026-05-04 19:57 | 51.12769 | 7.20340 | 16368 ft | 395 kts | 113° |
| 2026-05-04 19:57 | 51.11566 | 7.24269 | 16948 ft | 395 kts | 124° |
| 2026-05-04 19:58 | 51.09914 | 7.27753 | 17498 ft | 396 kts | 135° |
| 2026-05-04 19:58 | 51.07869 | 7.30688 | 18035 ft | 396 kts | 146° |
| 2026-05-04 19:58 | 51.05550 | 7.33046 | 18535 ft | 398 kts | 151° |
| 2026-05-04 19:58 | 51.03173 | 7.35353 | 19021 ft | 401 kts | 151° |
| 2026-05-04 19:59 | 51.00815 | 7.37647 | 19483 ft | 404 kts | 151° |
| 2026-05-04 19:59 | 50.98410 | 7.39989 | 19956 ft | 407 kts | 151° |
| 2026-05-04 19:59 | 50.95990 | 7.42348 | 20419 ft | 410 kts | 151° |
| 2026-05-04 19:59 | 50.93547 | 7.44728 | 20887 ft | 413 kts | 151° |
| 2026-05-04 20:00 | 50.91088 | 7.47115 | 21341 ft | 416 kts | 151° |
| 2026-05-04 20:00 | 50.88615 | 7.49503 | 21797 ft | 418 kts | 151° |
| 2026-05-04 20:00 | 50.86138 | 7.51893 | 22239 ft | 421 kts | 151° |
| 2026-05-04 20:00 | 50.83627 | 7.54319 | 22648 ft | 424 kts | 151° |
| 2026-05-04 20:01 | 50.81100 | 7.56759 | 22949 ft | 427 kts | 151° |
| 2026-05-04 20:01 | 50.78551 | 7.59153 | 23005 ft | 426 kts | 155° |
| 2026-05-04 20:01 | 50.75901 | 7.61062 | 23007 ft | 424 kts | 160° |
| 2026-05-04 20:01 | 50.73188 | 7.62869 | 23006 ft | 423 kts | 160° |
| 2026-05-04 20:02 | 50.70470 | 7.64678 | 22873 ft | 425 kts | 160° |
| 2026-05-04 20:02 | 50.67761 | 7.66479 | 21688 ft | 433 kts | 160° |
| 2026-05-04 20:02 | 50.64969 | 7.68332 | 20731 ft | 435 kts | 159° |
| 2026-05-04 20:02 | 50.62194 | 7.70174 | 19973 ft | 432 kts | 159° |
| 2026-05-04 20:03 | 50.59518 | 7.71946 | 19310 ft | 428 kts | 159° |
| 2026-05-04 20:03 | 50.56802 | 7.73746 | 18421 ft | 418 kts | 159° |
| 2026-05-04 20:03 | 50.54145 | 7.75507 | 17090 ft | 411 kts | 159° |
| 2026-05-04 20:03 | 50.51574 | 7.77209 | 15895 ft | 404 kts | 159° |
| 2026-05-04 20:04 | 50.49074 | 7.78860 | 14769 ft | 396 kts | 160° |
| 2026-05-04 20:04 | 50.46739 | 7.80404 | 13724 ft | 389 kts | 159° |
| 2026-05-04 20:04 | 50.44405 | 7.82383 | 12502 ft | 385 kts | 149° |
| 2026-05-04 20:04 | 50.42331 | 7.85053 | 11784 ft | 385 kts | 138° |
| 2026-05-04 20:05 | 50.40636 | 7.88124 | 11595 ft | 357 kts | 132° |
| 2026-05-04 20:05 | 50.39137 | 7.91023 | 11461 ft | 329 kts | 133° |
| 2026-05-04 20:05 | 50.37748 | 7.93698 | 11324 ft | 305 kts | 133° |
| 2026-05-04 20:05 | 50.36434 | 7.96213 | 10947 ft | 293 kts | 134° |
| 2026-05-04 20:06 | 50.35154 | 7.98648 | 10403 ft | 288 kts | 134° |
| 2026-05-04 20:06 | 50.33887 | 8.01056 | 10053 ft | 285 kts | 134° |
| 2026-05-04 20:06 | 50.32626 | 8.03456 | 9979 ft | 286 kts | 134° |
| 2026-05-04 20:06 | 50.31361 | 8.05866 | 9993 ft | 287 kts | 134° |
| 2026-05-04 20:07 | 50.30107 | 8.08255 | 9989 ft | 288 kts | 134° |
| 2026-05-04 20:07 | 50.28836 | 8.10667 | 9987 ft | 287 kts | 135° |
| 2026-05-04 20:07 | 50.27415 | 8.12815 | 9980 ft | 284 kts | 142° |
| 2026-05-04 20:07 | 50.25938 | 8.14872 | 9980 ft | 285 kts | 142° |
| 2026-05-04 20:08 | 50.24455 | 8.16935 | 9978 ft | 286 kts | 142° |
| 2026-05-04 20:08 | 50.22974 | 8.18999 | 9980 ft | 286 kts | 142° |
| 2026-05-04 20:08 | 50.21484 | 8.21081 | 9981 ft | 286 kts | 142° |
| 2026-05-04 20:08 | 50.20000 | 8.23154 | 9974 ft | 286 kts | 142° |
| 2026-05-04 20:09 | 50.18513 | 8.25226 | 9830 ft | 284 kts | 142° |
| 2026-05-04 20:09 | 50.17227 | 8.27505 | 9432 ft | 289 kts | 123° |
| 2026-05-04 20:09 | 50.16568 | 8.30469 | 9043 ft | 294 kts | 98° |
| 2026-05-04 20:09 | 50.16721 | 8.33663 | 8960 ft | 300 kts | 82° |
| 2026-05-04 20:10 | 50.17090 | 8.36872 | 8972 ft | 302 kts | 82° |
| 2026-05-04 20:10 | 50.17461 | 8.40098 | 8972 ft | 302 kts | 82° |
| 2026-05-04 20:10 | 50.17832 | 8.43325 | 8976 ft | 302 kts | 82° |
| 2026-05-04 20:10 | 50.18202 | 8.46551 | 8975 ft | 301 kts | 82° |
| 2026-05-04 20:11 | 50.18565 | 8.49732 | 8383 ft | 296 kts | 82° |
| 2026-05-04 20:11 | 50.18922 | 8.52882 | 7725 ft | 293 kts | 82° |
| 2026-05-04 20:11 | 50.19274 | 8.56001 | 7098 ft | 290 kts | 82° |
| 2026-05-04 20:11 | 50.19619 | 8.59073 | 6485 ft | 286 kts | 82° |
| 2026-05-04 20:12 | 50.19956 | 8.62073 | 5849 ft | 282 kts | 82° |
| 2026-05-04 20:12 | 50.20292 | 8.65070 | 5211 ft | 278 kts | 82° |
| 2026-05-04 20:12 | 50.20625 | 8.68041 | 4705 ft | 277 kts | 81° |
| 2026-05-04 20:12 | 50.20952 | 8.70964 | 4392 ft | 271 kts | 81° |
| 2026-05-04 20:13 | 50.21273 | 8.73840 | 4064 ft | 267 kts | 81° |
| 2026-05-04 20:13 | 50.21593 | 8.76695 | 3997 ft | 267 kts | 81° |
| 2026-05-04 20:13 | 50.21912 | 8.79551 | 4002 ft | 268 kts | 81° |
| 2026-05-04 20:13 | 50.22230 | 8.82418 | 4002 ft | 268 kts | 81° |
| 2026-05-04 20:14 | 50.22543 | 8.85283 | 3999 ft | 268 kts | 81° |
| 2026-05-04 20:14 | 50.22861 | 8.88145 | 4008 ft | 267 kts | 80° |
| 2026-05-04 20:14 | 50.23069 | 8.90985 | 4117 ft | 267 kts | 90° |
| 2026-05-04 20:14 | 50.22954 | 8.93882 | 4064 ft | 265 kts | 103° |
| 2026-05-04 20:15 | 50.22184 | 8.96354 | 4012 ft | 246 kts | 133° |
| 2026-05-04 20:15 | 50.20821 | 8.97778 | 4006 ft | 234 kts | 159° |
| 2026-05-04 20:15 | 50.19283 | 8.98564 | 4001 ft | 232 kts | 169° |
| 2026-05-04 20:15 | 50.17709 | 8.98381 | 4002 ft | 230 kts | 202° |
| 2026-05-04 20:16 | 50.16397 | 8.97009 | 4002 ft | 223 kts | 221° |
| 2026-05-04 20:16 | 50.15295 | 8.95413 | 3997 ft | 213 kts | 224° |
| 2026-05-04 20:16 | 50.14250 | 8.93841 | 4000 ft | 210 kts | 224° |
| 2026-05-04 20:16 | 50.13200 | 8.92251 | 4000 ft | 210 kts | 224° |
| 2026-05-04 20:17 | 50.12153 | 8.90665 | 4003 ft | 210 kts | 224° |
| 2026-05-04 20:17 | 50.11196 | 8.88962 | 3996 ft | 210 kts | 243° |
| 2026-05-04 20:17 | 50.10670 | 8.86898 | 3998 ft | 201 kts | 250° |
| 2026-05-04 20:17 | 50.10301 | 8.85287 | 3878 ft | 201 kts | 250° |
| 2026-05-04 20:18 | 50.09825 | 8.83244 | 3655 ft | 201 kts | 249° |
| 2026-05-04 20:18 | 50.09347 | 8.81208 | 3426 ft | 200 kts | 250° |
| 2026-05-04 20:18 | 50.08875 | 8.79207 | 3155 ft | 191 kts | 250° |
| 2026-05-04 20:18 | 50.08451 | 8.77413 | 2911 ft | 169 kts | 250° |
| 2026-05-04 20:19 | 50.08065 | 8.75782 | 2693 ft | 153 kts | 251° |
| 2026-05-04 20:19 | 50.07708 | 8.74271 | 2496 ft | 147 kts | 251° |
| 2026-05-04 20:19 | 50.07359 | 8.72793 | 2301 ft | 145 kts | 251° |
| 2026-05-04 20:19 | 50.07012 | 8.71326 | 2110 ft | 144 kts | 251° |
| 2026-05-04 20:20 | 50.06668 | 8.69866 | 1915 ft | 143 kts | 252° |
| 2026-05-04 20:20 | 50.06321 | 8.68424 | 1751 ft | 143 kts | 251° |
| 2026-05-04 20:20 | 50.05970 | 8.66972 | 1563 ft | 144 kts | 251° |
| 2026-05-04 20:20 | 50.05640 | 8.65530 | 1336 ft | 143 kts | 252° |
| 2026-05-04 20:21 | 50.05303 | 8.64090 | 1132 ft | 141 kts | 249° |
| 2026-05-04 20:21 | 50.04949 | 8.62666 | 992 ft | 140 kts | 251° |
| 2026-05-04 20:21 | 50.04278 | 8.59835 | 581 ft | 139 kts | 254° |
| 2026-05-04 20:22 | 50.03953 | 8.58438 | 408 ft | 137 kts | 251° |
| 2026-05-04 20:22 | 50.03651 | 8.57138 | 360 ft | 103 kts | 251° |
| 2026-05-04 20:22 | 50.03469 | 8.56409 | 357 ft | 58 kts | 253° |
| 2026-05-04 20:22 | 50.03449 | 8.55949 | 355 ft | 15 kts | 278° |
| 2026-05-04 20:23 | 50.03461 | 8.55835 | 349 ft | 0 kts | 280° |